sensor_id;sensor_type;location;lat;lon;timestamp;temperature;humidity
81935;DHT22;71405;47.674;-2.050;2023-12-20T00:00:40;18.80;53.50
81935;DHT22;71405;47.674;-2.050;2023-12-20T00:03:06;18.80;53.40
81935;DHT22;71405;47.674;-2.050;2023-12-20T00:05:32;18.80;53.50
81935;DHT22;71405;47.674;-2.050;2023-12-20T00:07:58;18.80;53.50
81935;DHT22;71405;47.674;-2.050;2023-12-20T00:10:24;18.80;53.50
81935;DHT22;71405;47.674;-2.050;2023-12-20T00:12:50;18.80;53.30
81935;DHT22;71405;47.674;-2.050;2023-12-20T00:15:15;18.80;53.40
81935;DHT22;71405;47.674;-2.050;2023-12-20T00:17:41;18.80;53.30
81935;DHT22;71405;47.674;-2.050;2023-12-20T00:20:07;18.70;53.50
81935;DHT22;71405;47.674;-2.050;2023-12-20T00:22:33;18.70;53.50
81935;DHT22;71405;47.674;-2.050;2023-12-20T00:24:58;18.70;53.40
81935;DHT22;71405;47.674;-2.050;2023-12-20T00:27:24;18.70;53.30
81935;DHT22;71405;47.674;-2.050;2023-12-20T00:29:49;18.70;53.50
81935;DHT22;71405;47.674;-2.050;2023-12-20T00:32:16;18.70;53.40
81935;DHT22;71405;47.674;-2.050;2023-12-20T00:34:42;18.70;53.40
81935;DHT22;71405;47.674;-2.050;2023-12-20T00:37:08;18.70;53.30
81935;DHT22;71405;47.674;-2.050;2023-12-20T00:39:34;18.70;53.40
81935;DHT22;71405;47.674;-2.050;2023-12-20T00:41:59;18.70;53.40
81935;DHT22;71405;47.674;-2.050;2023-12-20T00:44:25;18.70;53.20
81935;DHT22;71405;47.674;-2.050;2023-12-20T00:46:51;18.70;53.30
81935;DHT22;71405;47.674;-2.050;2023-12-20T00:49:17;18.70;53.30
81935;DHT22;71405;47.674;-2.050;2023-12-20T00:51:43;18.70;53.40
81935;DHT22;71405;47.674;-2.050;2023-12-20T00:54:08;18.70;53.20
81935;DHT22;71405;47.674;-2.050;2023-12-20T00:56:35;18.60;53.20
81935;DHT22;71405;47.674;-2.050;2023-12-20T00:59:00;18.60;53.40
81935;DHT22;71405;47.674;-2.050;2023-12-20T01:01:26;18.60;53.30
81935;DHT22;71405;47.674;-2.050;2023-12-20T01:03:52;18.60;53.40
81935;DHT22;71405;47.674;-2.050;2023-12-20T01:06:18;18.60;53.30
81935;DHT22;71405;47.674;-2.050;2023-12-20T01:08:43;18.60;53.30
81935;DHT22;71405;47.674;-2.050;2023-12-20T01:11:09;18.60;53.30
81935;DHT22;71405;47.674;-2.050;2023-12-20T01:13:35;18.60;53.10
81935;DHT22;71405;47.674;-2.050;2023-12-20T01:16:00;18.60;53.30
81935;DHT22;71405;47.674;-2.050;2023-12-20T01:18:26;18.60;53.30
81935;DHT22;71405;47.674;-2.050;2023-12-20T01:20:52;18.60;53.30
81935;DHT22;71405;47.674;-2.050;2023-12-20T01:23:18;18.50;53.20
81935;DHT22;71405;47.674;-2.050;2023-12-20T01:25:43;18.50;53.20
81935;DHT22;71405;47.674;-2.050;2023-12-20T01:28:09;18.50;53.30
81935;DHT22;71405;47.674;-2.050;2023-12-20T01:30:35;18.50;53.10
81935;DHT22;71405;47.674;-2.050;2023-12-20T01:33:01;18.60;53.20
81935;DHT22;71405;47.674;-2.050;2023-12-20T01:35:29;18.50;53.10
81935;DHT22;71405;47.674;-2.050;2023-12-20T01:37:55;18.50;53.20
81935;DHT22;71405;47.674;-2.050;2023-12-20T01:40:23;18.50;53.30
81935;DHT22;71405;47.674;-2.050;2023-12-20T01:43:07;18.50;53.20
81935;DHT22;71405;47.674;-2.050;2023-12-20T01:45:37;18.50;53.30
81935;DHT22;71405;47.674;-2.050;2023-12-20T01:48:05;18.50;53.10
81935;DHT22;71405;47.674;-2.050;2023-12-20T01:50:31;18.50;53.00
81935;DHT22;71405;47.674;-2.050;2023-12-20T01:52:59;18.50;53.20
81935;DHT22;71405;47.674;-2.050;2023-12-20T01:55:29;18.50;53.20
81935;DHT22;71405;47.674;-2.050;2023-12-20T01:57:57;18.50;53.30
81935;DHT22;71405;47.674;-2.050;2023-12-20T02:00:24;18.50;53.20
81935;DHT22;71405;47.674;-2.050;2023-12-20T02:02:53;18.50;53.20
81935;DHT22;71405;47.674;-2.050;2023-12-20T02:05:19;18.50;53.30
81935;DHT22;71405;47.674;-2.050;2023-12-20T02:07:45;18.50;53.20
81935;DHT22;71405;47.674;-2.050;2023-12-20T02:10:11;18.40;53.30
81935;DHT22;71405;47.674;-2.050;2023-12-20T02:12:37;18.50;53.00
81935;DHT22;71405;47.674;-2.050;2023-12-20T02:15:02;18.40;53.40
81935;DHT22;71405;47.674;-2.050;2023-12-20T02:17:29;18.40;53.10
81935;DHT22;71405;47.674;-2.050;2023-12-20T02:19:55;18.40;53.20
81935;DHT22;71405;47.674;-2.050;2023-12-20T02:22:21;18.40;53.00
81935;DHT22;71405;47.674;-2.050;2023-12-20T02:24:46;18.40;53.10
81935;DHT22;71405;47.674;-2.050;2023-12-20T02:27:12;18.40;53.20
81935;DHT22;71405;47.674;-2.050;2023-12-20T02:29:38;18.40;53.30
81935;DHT22;71405;47.674;-2.050;2023-12-20T02:32:04;18.40;53.20
81935;DHT22;71405;47.674;-2.050;2023-12-20T02:34:29;18.40;53.30
81935;DHT22;71405;47.674;-2.050;2023-12-20T02:36:55;18.40;53.40
81935;DHT22;71405;47.674;-2.050;2023-12-20T02:39:21;18.40;53.60
81935;DHT22;71405;47.674;-2.050;2023-12-20T02:41:48;18.40;53.30
81935;DHT22;71405;47.674;-2.050;2023-12-20T02:44:13;18.40;53.10
81935;DHT22;71405;47.674;-2.050;2023-12-20T02:46:39;18.40;53.30
81935;DHT22;71405;47.674;-2.050;2023-12-20T02:49:06;18.40;53.30
81935;DHT22;71405;47.674;-2.050;2023-12-20T02:51:31;18.30;53.30
81935;DHT22;71405;47.674;-2.050;2023-12-20T02:53:57;18.40;53.20
81935;DHT22;71405;47.674;-2.050;2023-12-20T02:56:23;18.40;53.10
81935;DHT22;71405;47.674;-2.050;2023-12-20T02:58:48;18.40;53.20
81935;DHT22;71405;47.674;-2.050;2023-12-20T03:01:14;18.30;53.40
81935;DHT22;71405;47.674;-2.050;2023-12-20T03:03:40;18.40;53.40
81935;DHT22;71405;47.674;-2.050;2023-12-20T03:06:05;18.30;53.20
81935;DHT22;71405;47.674;-2.050;2023-12-20T03:08:31;18.30;53.20
81935;DHT22;71405;47.674;-2.050;2023-12-20T03:10:59;18.30;53.20
81935;DHT22;71405;47.674;-2.050;2023-12-20T03:13:25;18.30;53.60
81935;DHT22;71405;47.674;-2.050;2023-12-20T03:15:50;18.30;53.20
81935;DHT22;71405;47.674;-2.050;2023-12-20T03:18:16;18.30;53.40
81935;DHT22;71405;47.674;-2.050;2023-12-20T03:20:42;18.30;53.40
81935;DHT22;71405;47.674;-2.050;2023-12-20T03:23:07;18.30;53.20
81935;DHT22;71405;47.674;-2.050;2023-12-20T03:25:33;18.30;53.40
81935;DHT22;71405;47.674;-2.050;2023-12-20T03:27:59;18.30;53.10
81935;DHT22;71405;47.674;-2.050;2023-12-20T03:30:24;18.30;53.40
81935;DHT22;71405;47.674;-2.050;2023-12-20T03:32:50;18.30;53.20
81935;DHT22;71405;47.674;-2.050;2023-12-20T03:35:16;18.30;53.30
81935;DHT22;71405;47.674;-2.050;2023-12-20T03:37:41;18.30;53.20
81935;DHT22;71405;47.674;-2.050;2023-12-20T03:40:07;18.30;53.30
81935;DHT22;71405;47.674;-2.050;2023-12-20T03:42:33;18.20;53.20
81935;DHT22;71405;47.674;-2.050;2023-12-20T03:44:58;18.20;53.50
81935;DHT22;71405;47.674;-2.050;2023-12-20T03:47:24;18.20;53.30
81935;DHT22;71405;47.674;-2.050;2023-12-20T03:49:50;18.20;53.10
81935;DHT22;71405;47.674;-2.050;2023-12-20T03:52:15;18.20;53.10
81935;DHT22;71405;47.674;-2.050;2023-12-20T03:54:41;18.20;53.20
81935;DHT22;71405;47.674;-2.050;2023-12-20T03:57:10;18.20;53.30
81935;DHT22;71405;47.674;-2.050;2023-12-20T03:59:39;18.20;53.60
81935;DHT22;71405;47.674;-2.050;2023-12-20T04:02:04;18.20;53.50
81935;DHT22;71405;47.674;-2.050;2023-12-20T04:04:30;18.20;53.60
81935;DHT22;71405;47.674;-2.050;2023-12-20T04:06:56;18.30;54.30
81935;DHT22;71405;47.674;-2.050;2023-12-20T04:09:21;18.40;54.50
81935;DHT22;71405;47.674;-2.050;2023-12-20T04:11:47;18.70;53.90
81935;DHT22;71405;47.674;-2.050;2023-12-20T04:14:13;19.00;53.00
81935;DHT22;71405;47.674;-2.050;2023-12-20T04:16:38;19.30;52.20
81935;DHT22;71405;47.674;-2.050;2023-12-20T04:19:04;19.50;52.00
81935;DHT22;71405;47.674;-2.050;2023-12-20T04:21:30;19.60;51.70
81935;DHT22;71405;47.674;-2.050;2023-12-20T04:23:56;19.70;51.50
81935;DHT22;71405;47.674;-2.050;2023-12-20T04:26:22;19.70;51.80
81935;DHT22;71405;47.674;-2.050;2023-12-20T04:28:47;19.80;51.50
81935;DHT22;71405;47.674;-2.050;2023-12-20T04:31:13;19.80;51.70
81935;DHT22;71405;47.674;-2.050;2023-12-20T04:33:39;19.90;51.20
81935;DHT22;71405;47.674;-2.050;2023-12-20T04:36:04;20.00;50.80
81935;DHT22;71405;47.674;-2.050;2023-12-20T04:38:30;20.10;50.90
81935;DHT22;71405;47.674;-2.050;2023-12-20T04:40:56;20.10;50.50
81935;DHT22;71405;47.674;-2.050;2023-12-20T04:43:22;20.20;50.50
81935;DHT22;71405;47.674;-2.050;2023-12-20T04:45:48;20.30;50.30
81935;DHT22;71405;47.674;-2.050;2023-12-20T04:48:13;20.40;50.60
81935;DHT22;71405;47.674;-2.050;2023-12-20T04:50:39;20.40;50.70
81935;DHT22;71405;47.674;-2.050;2023-12-20T04:53:04;20.50;50.10
81935;DHT22;71405;47.674;-2.050;2023-12-20T04:55:30;20.50;49.80
81935;DHT22;71405;47.674;-2.050;2023-12-20T04:57:56;20.60;49.90
81935;DHT22;71405;47.674;-2.050;2023-12-20T05:00:22;20.60;49.80
81935;DHT22;71405;47.674;-2.050;2023-12-20T05:02:47;20.60;49.60
81935;DHT22;71405;47.674;-2.050;2023-12-20T05:05:13;20.70;49.30
81935;DHT22;71405;47.674;-2.050;2023-12-20T05:07:40;20.70;49.20
81935;DHT22;71405;47.674;-2.050;2023-12-20T05:10:06;20.80;49.10
81935;DHT22;71405;47.674;-2.050;2023-12-20T05:12:34;20.80;49.00
81935;DHT22;71405;47.674;-2.050;2023-12-20T05:15:00;20.80;49.20
81935;DHT22;71405;47.674;-2.050;2023-12-20T05:17:25;20.90;49.20
81935;DHT22;71405;47.674;-2.050;2023-12-20T05:19:51;20.90;48.90
81935;DHT22;71405;47.674;-2.050;2023-12-20T05:22:18;21.00;48.30
81935;DHT22;71405;47.674;-2.050;2023-12-20T05:24:44;21.00;48.20
81935;DHT22;71405;47.674;-2.050;2023-12-20T05:27:10;21.10;48.70
81935;DHT22;71405;47.674;-2.050;2023-12-20T05:29:36;21.10;48.10
81935;DHT22;71405;47.674;-2.050;2023-12-20T05:32:02;21.10;47.80
81935;DHT22;71405;47.674;-2.050;2023-12-20T05:34:30;21.20;47.80
81935;DHT22;71405;47.674;-2.050;2023-12-20T05:36:56;21.20;48.00
81935;DHT22;71405;47.674;-2.050;2023-12-20T05:39:21;21.30;47.90
81935;DHT22;71405;47.674;-2.050;2023-12-20T05:41:47;21.30;48.40
81935;DHT22;71405;47.674;-2.050;2023-12-20T05:44:13;21.30;47.60
81935;DHT22;71405;47.674;-2.050;2023-12-20T05:46:39;21.40;48.00
81935;DHT22;71405;47.674;-2.050;2023-12-20T05:49:05;21.40;47.90
81935;DHT22;71405;47.674;-2.050;2023-12-20T05:51:31;21.50;47.80
81935;DHT22;71405;47.674;-2.050;2023-12-20T05:53:57;21.50;47.70
81935;DHT22;71405;47.674;-2.050;2023-12-20T05:56:22;21.50;47.20
81935;DHT22;71405;47.674;-2.050;2023-12-20T05:58:48;21.50;47.30
81935;DHT22;71405;47.674;-2.050;2023-12-20T06:01:16;21.50;47.00
81935;DHT22;71405;47.674;-2.050;2023-12-20T06:03:43;21.60;46.90
81935;DHT22;71405;47.674;-2.050;2023-12-20T06:06:11;21.60;46.90
81935;DHT22;71405;47.674;-2.050;2023-12-20T06:08:38;21.50;47.20
81935;DHT22;71405;47.674;-2.050;2023-12-20T06:11:04;21.50;46.90
81935;DHT22;71405;47.674;-2.050;2023-12-20T06:13:30;21.30;47.20
81935;DHT22;71405;47.674;-2.050;2023-12-20T06:15:56;21.20;47.30
81935;DHT22;71405;47.674;-2.050;2023-12-20T06:18:22;21.00;47.50
81935;DHT22;71405;47.674;-2.050;2023-12-20T06:20:48;20.90;47.80
81935;DHT22;71405;47.674;-2.050;2023-12-20T06:23:14;20.80;48.00
81935;DHT22;71405;47.674;-2.050;2023-12-20T06:25:40;20.70;48.30
81935;DHT22;71405;47.674;-2.050;2023-12-20T06:28:05;20.60;48.30
81935;DHT22;71405;47.674;-2.050;2023-12-20T06:30:31;20.50;48.30
81935;DHT22;71405;47.674;-2.050;2023-12-20T06:32:58;20.40;48.40
81935;DHT22;71405;47.674;-2.050;2023-12-20T06:35:24;20.30;48.40
81935;DHT22;71405;47.674;-2.050;2023-12-20T06:37:50;20.20;48.60
81935;DHT22;71405;47.674;-2.050;2023-12-20T06:40:16;20.10;48.70
81935;DHT22;71405;47.674;-2.050;2023-12-20T06:42:41;20.00;48.70
81935;DHT22;71405;47.674;-2.050;2023-12-20T06:45:07;19.90;49.00
81935;DHT22;71405;47.674;-2.050;2023-12-20T06:47:33;19.80;49.10
81935;DHT22;71405;47.674;-2.050;2023-12-20T06:49:59;19.70;49.10
81935;DHT22;71405;47.674;-2.050;2023-12-20T06:52:25;19.70;49.30
81935;DHT22;71405;47.674;-2.050;2023-12-20T06:54:50;19.60;49.40
81935;DHT22;71405;47.674;-2.050;2023-12-20T06:57:16;19.50;49.70
81935;DHT22;71405;47.674;-2.050;2023-12-20T06:59:42;19.40;50.00
81935;DHT22;71405;47.674;-2.050;2023-12-20T07:02:08;19.40;49.90
81935;DHT22;71405;47.674;-2.050;2023-12-20T07:04:38;19.30;50.10
81935;DHT22;71405;47.674;-2.050;2023-12-20T07:07:04;19.20;50.10
81935;DHT22;71405;47.674;-2.050;2023-12-20T07:09:29;19.20;50.30
81935;DHT22;71405;47.674;-2.050;2023-12-20T07:11:55;19.10;50.10
81935;DHT22;71405;47.674;-2.050;2023-12-20T07:14:20;19.10;50.20
81935;DHT22;71405;47.674;-2.050;2023-12-20T07:16:47;19.10;50.20
81935;DHT22;71405;47.674;-2.050;2023-12-20T07:19:12;19.00;50.10
81935;DHT22;71405;47.674;-2.050;2023-12-20T07:21:38;19.00;50.40
81935;DHT22;71405;47.674;-2.050;2023-12-20T07:24:04;18.90;50.60
81935;DHT22;71405;47.674;-2.050;2023-12-20T07:26:30;18.90;50.90
81935;DHT22;71405;47.674;-2.050;2023-12-20T07:28:55;18.90;52.60
81935;DHT22;71405;47.674;-2.050;2023-12-20T07:31:21;18.90;52.10
81935;DHT22;71405;47.674;-2.050;2023-12-20T07:33:47;18.90;51.80
81935;DHT22;71405;47.674;-2.050;2023-12-20T07:36:13;18.80;52.00
81935;DHT22;71405;47.674;-2.050;2023-12-20T07:38:38;18.80;52.30
81935;DHT22;71405;47.674;-2.050;2023-12-20T07:41:04;18.80;52.10
81935;DHT22;71405;47.674;-2.050;2023-12-20T07:43:30;18.70;52.90
81935;DHT22;71405;47.674;-2.050;2023-12-20T07:45:56;18.70;52.80
81935;DHT22;71405;47.674;-2.050;2023-12-20T07:48:21;18.60;52.80
81935;DHT22;71405;47.674;-2.050;2023-12-20T07:50:47;18.60;52.70
81935;DHT22;71405;47.674;-2.050;2023-12-20T07:53:13;18.60;52.80
81935;DHT22;71405;47.674;-2.050;2023-12-20T07:55:39;18.60;52.90
81935;DHT22;71405;47.674;-2.050;2023-12-20T07:58:05;18.50;52.90
81935;DHT22;71405;47.674;-2.050;2023-12-20T08:00:30;18.50;52.90
81935;DHT22;71405;47.674;-2.050;2023-12-20T08:02:56;18.50;52.90
81935;DHT22;71405;47.674;-2.050;2023-12-20T08:05:22;18.50;52.90
81935;DHT22;71405;47.674;-2.050;2023-12-20T08:07:47;18.50;52.90
81935;DHT22;71405;47.674;-2.050;2023-12-20T08:10:13;18.50;53.00
81935;DHT22;71405;47.674;-2.050;2023-12-20T08:12:39;18.50;52.90
81935;DHT22;71405;47.674;-2.050;2023-12-20T08:15:05;18.50;52.70
81935;DHT22;71405;47.674;-2.050;2023-12-20T08:17:31;18.40;52.80
81935;DHT22;71405;47.674;-2.050;2023-12-20T08:19:57;18.40;52.90
81935;DHT22;71405;47.674;-2.050;2023-12-20T08:22:23;18.40;52.80
81935;DHT22;71405;47.674;-2.050;2023-12-20T08:24:49;18.40;52.80
81935;DHT22;71405;47.674;-2.050;2023-12-20T08:27:14;18.40;52.70
81935;DHT22;71405;47.674;-2.050;2023-12-20T08:29:40;18.40;52.70
81935;DHT22;71405;47.674;-2.050;2023-12-20T08:32:05;18.40;52.60
81935;DHT22;71405;47.674;-2.050;2023-12-20T08:34:31;18.40;52.70
81935;DHT22;71405;47.674;-2.050;2023-12-20T08:36:57;18.40;52.70
81935;DHT22;71405;47.674;-2.050;2023-12-20T08:39:23;18.40;52.60
81935;DHT22;71405;47.674;-2.050;2023-12-20T08:41:48;18.40;52.80
81935;DHT22;71405;47.674;-2.050;2023-12-20T08:44:14;18.40;52.80
81935;DHT22;71405;47.674;-2.050;2023-12-20T08:46:40;18.40;52.70
81935;DHT22;71405;47.674;-2.050;2023-12-20T08:49:05;18.40;52.70
81935;DHT22;71405;47.674;-2.050;2023-12-20T08:51:31;18.40;52.60
81935;DHT22;71405;47.674;-2.050;2023-12-20T08:53:56;18.40;52.50
81935;DHT22;71405;47.674;-2.050;2023-12-20T08:56:22;18.40;52.60
81935;DHT22;71405;47.674;-2.050;2023-12-20T08:58:48;18.40;52.60
81935;DHT22;71405;47.674;-2.050;2023-12-20T09:01:14;18.40;52.60
81935;DHT22;71405;47.674;-2.050;2023-12-20T09:03:40;18.40;52.50
81935;DHT22;71405;47.674;-2.050;2023-12-20T09:06:06;18.40;52.60
81935;DHT22;71405;47.674;-2.050;2023-12-20T09:08:32;18.30;52.50
81935;DHT22;71405;47.674;-2.050;2023-12-20T09:10:58;18.30;52.40
81935;DHT22;71405;47.674;-2.050;2023-12-20T09:13:24;18.30;52.40
81935;DHT22;71405;47.674;-2.050;2023-12-20T09:15:55;18.30;52.60
81935;DHT22;71405;47.674;-2.050;2023-12-20T09:18:21;18.30;52.50
81935;DHT22;71405;47.674;-2.050;2023-12-20T09:20:46;18.30;52.50
81935;DHT22;71405;47.674;-2.050;2023-12-20T09:23:12;18.30;52.40
81935;DHT22;71405;47.674;-2.050;2023-12-20T09:25:38;18.30;52.50
81935;DHT22;71405;47.674;-2.050;2023-12-20T09:28:04;18.30;52.60
81935;DHT22;71405;47.674;-2.050;2023-12-20T09:30:29;18.30;52.60
81935;DHT22;71405;47.674;-2.050;2023-12-20T09:32:55;18.30;52.50
81935;DHT22;71405;47.674;-2.050;2023-12-20T09:35:21;18.30;52.60
81935;DHT22;71405;47.674;-2.050;2023-12-20T09:37:48;18.30;52.30
81935;DHT22;71405;47.674;-2.050;2023-12-20T09:40:14;18.30;52.50
81935;DHT22;71405;47.674;-2.050;2023-12-20T09:42:58;18.30;52.50
81935;DHT22;71405;47.674;-2.050;2023-12-20T09:45:24;18.30;52.40
81935;DHT22;71405;47.674;-2.050;2023-12-20T09:47:52;18.30;52.40
81935;DHT22;71405;47.674;-2.050;2023-12-20T09:50:20;18.30;52.40
81935;DHT22;71405;47.674;-2.050;2023-12-20T09:52:49;18.30;52.30
81935;DHT22;71405;47.674;-2.050;2023-12-20T09:55:19;18.30;52.40
81935;DHT22;71405;47.674;-2.050;2023-12-20T09:57:46;18.30;52.50
81935;DHT22;71405;47.674;-2.050;2023-12-20T10:00:12;18.30;52.30
81935;DHT22;71405;47.674;-2.050;2023-12-20T10:02:58;18.30;52.40
81935;DHT22;71405;47.674;-2.050;2023-12-20T10:05:32;18.20;52.50
81935;DHT22;71405;47.674;-2.050;2023-12-20T10:07:58;18.30;53.50
81935;DHT22;71405;47.674;-2.050;2023-12-20T10:10:25;18.50;53.10
81935;DHT22;71405;47.674;-2.050;2023-12-20T10:15:28;19.10;52.10
81935;DHT22;71405;47.674;-2.050;2023-12-20T10:17:54;19.40;51.90
81935;DHT22;71405;47.674;-2.050;2023-12-20T10:20:20;19.50;51.80
81935;DHT22;71405;47.674;-2.050;2023-12-20T10:22:46;19.70;51.60
81935;DHT22;71405;47.674;-2.050;2023-12-20T10:25:13;19.70;51.00
81935;DHT22;71405;47.674;-2.050;2023-12-20T10:27:38;19.80;50.70
81935;DHT22;71405;47.674;-2.050;2023-12-20T10:30:04;19.80;50.90
81935;DHT22;71405;47.674;-2.050;2023-12-20T10:32:30;19.90;50.30
81935;DHT22;71405;47.674;-2.050;2023-12-20T10:34:57;20.00;49.90
81935;DHT22;71405;47.674;-2.050;2023-12-20T10:37:22;20.00;50.10
81935;DHT22;71405;47.674;-2.050;2023-12-20T10:39:52;20.10;49.90
81935;DHT22;71405;47.674;-2.050;2023-12-20T10:42:22;20.20;49.80
81935;DHT22;71405;47.674;-2.050;2023-12-20T10:44:49;20.30;49.50
81935;DHT22;71405;47.674;-2.050;2023-12-20T10:47:15;20.30;49.40
81935;DHT22;71405;47.674;-2.050;2023-12-20T10:49:41;20.40;49.50
81935;DHT22;71405;47.674;-2.050;2023-12-20T10:52:08;20.50;49.30
81935;DHT22;71405;47.674;-2.050;2023-12-20T10:54:34;20.50;49.40
81935;DHT22;71405;47.674;-2.050;2023-12-20T10:57:00;20.60;49.10
81935;DHT22;71405;47.674;-2.050;2023-12-20T10:59:41;20.70;48.90
81935;DHT22;71405;47.674;-2.050;2023-12-20T11:02:08;20.80;48.50
81935;DHT22;71405;47.674;-2.050;2023-12-20T11:08:32;20.90;48.30
81935;DHT22;71405;47.674;-2.050;2023-12-20T11:11:26;21.00;48.00
81935;DHT22;71405;47.674;-2.050;2023-12-20T11:16:24;21.10;47.80
81935;DHT22;71405;47.674;-2.050;2023-12-20T11:18:51;21.20;47.80
81935;DHT22;71405;47.674;-2.050;2023-12-20T11:21:17;21.20;47.70
81935;DHT22;71405;47.674;-2.050;2023-12-20T11:23:43;21.30;47.70
81935;DHT22;71405;47.674;-2.050;2023-12-20T11:26:08;21.30;47.50
81935;DHT22;71405;47.674;-2.050;2023-12-20T11:28:34;21.30;47.50
81935;DHT22;71405;47.674;-2.050;2023-12-20T11:31:01;21.40;47.50
81935;DHT22;71405;47.674;-2.050;2023-12-20T11:33:35;21.50;47.40
81935;DHT22;71405;47.674;-2.050;2023-12-20T11:36:01;21.60;47.60
81935;DHT22;71405;47.674;-2.050;2023-12-20T11:38:36;21.60;47.30
81935;DHT22;71405;47.674;-2.050;2023-12-20T11:41:05;21.70;47.10
81935;DHT22;71405;47.674;-2.050;2023-12-20T11:43:38;21.70;47.20
81935;DHT22;71405;47.674;-2.050;2023-12-20T11:46:08;21.80;47.30
81935;DHT22;71405;47.674;-2.050;2023-12-20T11:48:38;21.80;47.00
81935;DHT22;71405;47.674;-2.050;2023-12-20T11:51:11;21.90;46.90
81935;DHT22;71405;47.674;-2.050;2023-12-20T11:53:38;21.90;46.80
81935;DHT22;71405;47.674;-2.050;2023-12-20T11:56:07;21.90;46.90
81935;DHT22;71405;47.674;-2.050;2023-12-20T11:58:34;22.00;47.10
81935;DHT22;71405;47.674;-2.050;2023-12-20T12:01:00;22.00;46.80
81935;DHT22;71405;47.674;-2.050;2023-12-20T12:03:27;22.00;46.70
81935;DHT22;71405;47.674;-2.050;2023-12-20T12:05:53;22.00;46.60
81935;DHT22;71405;47.674;-2.050;2023-12-20T12:08:19;22.00;46.80
81935;DHT22;71405;47.674;-2.050;2023-12-20T12:10:45;21.90;47.10
81935;DHT22;71405;47.674;-2.050;2023-12-20T12:13:11;21.80;47.40
81935;DHT22;71405;47.674;-2.050;2023-12-20T12:15:37;21.70;47.40
81935;DHT22;71405;47.674;-2.050;2023-12-20T12:18:03;21.60;47.60
81935;DHT22;71405;47.674;-2.050;2023-12-20T12:20:30;21.50;47.90
81935;DHT22;71405;47.674;-2.050;2023-12-20T12:23:04;21.50;47.90
81935;DHT22;71405;47.674;-2.050;2023-12-20T12:25:31;21.30;48.10
81935;DHT22;71405;47.674;-2.050;2023-12-20T12:27:58;21.20;48.00
81935;DHT22;71405;47.674;-2.050;2023-12-20T12:30:25;21.10;48.40
81935;DHT22;71405;47.674;-2.050;2023-12-20T12:32:51;20.90;48.40
81935;DHT22;71405;47.674;-2.050;2023-12-20T12:35:18;20.80;48.60
81935;DHT22;71405;47.674;-2.050;2023-12-20T12:37:44;20.70;48.60
81935;DHT22;71405;47.674;-2.050;2023-12-20T12:40:11;20.60;48.80
81935;DHT22;71405;47.674;-2.050;2023-12-20T12:42:37;20.50;49.10
81935;DHT22;71405;47.674;-2.050;2023-12-20T12:45:04;20.40;49.00
81935;DHT22;71405;47.674;-2.050;2023-12-20T12:47:30;20.40;49.10
81935;DHT22;71405;47.674;-2.050;2023-12-20T12:49:56;20.30;49.20
81935;DHT22;71405;47.674;-2.050;2023-12-20T12:52:22;20.20;49.20
81935;DHT22;71405;47.674;-2.050;2023-12-20T12:54:48;20.20;49.30
81935;DHT22;71405;47.674;-2.050;2023-12-20T12:57:15;20.10;48.90
81935;DHT22;71405;47.674;-2.050;2023-12-20T12:59:43;20.00;49.70
81935;DHT22;71405;47.674;-2.050;2023-12-20T13:02:14;19.90;49.80
81935;DHT22;71405;47.674;-2.050;2023-12-20T13:04:43;19.90;49.90
81935;DHT22;71405;47.674;-2.050;2023-12-20T13:07:09;19.80;50.20
81935;DHT22;71405;47.674;-2.050;2023-12-20T13:09:38;19.70;50.30
81935;DHT22;71405;47.674;-2.050;2023-12-20T13:12:05;19.70;50.10
81935;DHT22;71405;47.674;-2.050;2023-12-20T13:14:33;19.70;50.20
81935;DHT22;71405;47.674;-2.050;2023-12-20T13:17:00;19.60;50.00
81935;DHT22;71405;47.674;-2.050;2023-12-20T13:19:26;19.60;50.20
81935;DHT22;71405;47.674;-2.050;2023-12-20T13:21:52;19.50;50.30
81935;DHT22;71405;47.674;-2.050;2023-12-20T13:24:17;19.50;50.30
81935;DHT22;71405;47.674;-2.050;2023-12-20T13:26:44;19.50;50.40
81935;DHT22;71405;47.674;-2.050;2023-12-20T13:29:09;19.40;50.50
81935;DHT22;71405;47.674;-2.050;2023-12-20T13:31:35;19.40;50.60
81935;DHT22;71405;47.674;-2.050;2023-12-20T13:34:02;19.30;50.70
81935;DHT22;71405;47.674;-2.050;2023-12-20T13:36:27;19.30;51.00
81935;DHT22;71405;47.674;-2.050;2023-12-20T13:38:53;19.20;51.00
81935;DHT22;71405;47.674;-2.050;2023-12-20T13:41:19;19.20;51.00
81935;DHT22;71405;47.674;-2.050;2023-12-20T13:43:45;19.20;51.10
81935;DHT22;71405;47.674;-2.050;2023-12-20T13:46:11;19.10;51.00
81935;DHT22;71405;47.674;-2.050;2023-12-20T13:48:37;19.10;50.90
81935;DHT22;71405;47.674;-2.050;2023-12-20T13:51:03;19.10;51.30
81935;DHT22;71405;47.674;-2.050;2023-12-20T13:53:29;19.10;51.30
81935;DHT22;71405;47.674;-2.050;2023-12-20T13:55:54;19.00;51.50
81935;DHT22;71405;47.674;-2.050;2023-12-20T13:58:20;19.00;51.60
81935;DHT22;71405;47.674;-2.050;2023-12-20T14:00:46;19.00;51.50
81935;DHT22;71405;47.674;-2.050;2023-12-20T14:03:11;19.00;51.50
81935;DHT22;71405;47.674;-2.050;2023-12-20T14:05:37;18.90;51.70
81935;DHT22;71405;47.674;-2.050;2023-12-20T14:08:03;18.90;51.50
81935;DHT22;71405;47.674;-2.050;2023-12-20T14:10:29;18.90;51.70
81935;DHT22;71405;47.674;-2.050;2023-12-20T14:12:55;18.90;51.80
81935;DHT22;71405;47.674;-2.050;2023-12-20T14:15:21;18.90;51.50
81935;DHT22;71405;47.674;-2.050;2023-12-20T14:17:50;18.90;51.80
81935;DHT22;71405;47.674;-2.050;2023-12-20T14:20:16;18.90;51.80
81935;DHT22;71405;47.674;-2.050;2023-12-20T14:22:42;18.90;51.80
81935;DHT22;71405;47.674;-2.050;2023-12-20T14:25:12;18.90;52.00
81935;DHT22;71405;47.674;-2.050;2023-12-20T14:27:39;18.90;51.90
81935;DHT22;71405;47.674;-2.050;2023-12-20T14:30:05;18.90;52.10
81935;DHT22;71405;47.674;-2.050;2023-12-20T14:32:31;18.90;52.10
81935;DHT22;71405;47.674;-2.050;2023-12-20T14:34:57;18.80;51.90
81935;DHT22;71405;47.674;-2.050;2023-12-20T14:37:23;18.80;52.10
81935;DHT22;71405;47.674;-2.050;2023-12-20T14:39:49;18.80;52.00
81935;DHT22;71405;47.674;-2.050;2023-12-20T14:42:14;18.80;52.20
81935;DHT22;71405;47.674;-2.050;2023-12-20T14:44:40;18.80;52.30
81935;DHT22;71405;47.674;-2.050;2023-12-20T14:47:06;18.80;52.30
81935;DHT22;71405;47.674;-2.050;2023-12-20T14:49:32;18.80;52.40
81935;DHT22;71405;47.674;-2.050;2023-12-20T14:51:57;18.80;52.50
81935;DHT22;71405;47.674;-2.050;2023-12-20T14:54:24;18.80;52.50
81935;DHT22;71405;47.674;-2.050;2023-12-20T14:56:49;18.80;52.40
81935;DHT22;71405;47.674;-2.050;2023-12-20T14:59:15;18.80;52.50
81935;DHT22;71405;47.674;-2.050;2023-12-20T15:01:40;18.80;52.60
81935;DHT22;71405;47.674;-2.050;2023-12-20T15:04:07;18.70;52.60
81935;DHT22;71405;47.674;-2.050;2023-12-20T15:06:33;18.80;52.30
81935;DHT22;71405;47.674;-2.050;2023-12-20T15:08:59;18.80;52.40
81935;DHT22;71405;47.674;-2.050;2023-12-20T15:11:25;18.70;52.50
81935;DHT22;71405;47.674;-2.050;2023-12-20T15:13:52;18.70;52.70
81935;DHT22;71405;47.674;-2.050;2023-12-20T15:16:24;18.70;52.40
81935;DHT22;71405;47.674;-2.050;2023-12-20T15:18:51;18.70;52.50